createdAt,value
2017-10-25T00:00:15.724Z,93.4
2017-10-25T00:01:18.153Z,93.4
2017-10-25T00:02:20.574Z,93.4
2017-10-25T00:03:23.019Z,93.4
2017-10-25T00:04:25.445Z,93.4
2017-10-25T00:05:27.884Z,93.4
2017-10-25T00:06:30.321Z,93.4
2017-10-25T00:07:33.470Z,93.4
2017-10-25T00:08:35.894Z,93.4
2017-10-25T00:09:38.330Z,93.3
2017-10-25T00:10:41.113Z,93.4
2017-10-25T00:11:43.540Z,93.4
2017-10-25T00:12:45.968Z,93.5
2017-10-25T00:13:48.412Z,93.5
2017-10-25T00:14:50.844Z,93.4
2017-10-25T00:15:53.289Z,93.4
2017-10-25T00:16:55.705Z,93.4
2017-10-25T00:17:58.137Z,93.4
2017-10-25T00:19:00.570Z,93.4
2017-10-25T00:20:03.005Z,93.5
2017-10-25T00:21:05.436Z,93.5
2017-10-25T00:22:07.873Z,93.4
2017-10-25T00:23:10.302Z,93.4
2017-10-25T00:24:12.739Z,93.5
2017-10-25T00:25:15.166Z,93.5
2017-10-25T00:26:17.598Z,93.5
2017-10-25T00:27:20.022Z,93.5
2017-10-25T00:28:22.466Z,93.6
2017-10-25T00:29:24.897Z,93.5
2017-10-25T00:30:27.673Z,93.5
2017-10-25T00:31:30.109Z,93.4
2017-10-25T00:32:32.899Z,93.5
2017-10-25T00:33:35.683Z,93.4
2017-10-25T00:34:38.119Z,93.4
2017-10-25T00:35:40.550Z,93.5
2017-10-25T00:36:42.984Z,93.5
2017-10-25T00:37:45.423Z,93.5
2017-10-25T00:38:47.849Z,93.5
2017-10-25T00:39:50.284Z,93.5
2017-10-25T00:40:52.718Z,93.5
2017-10-25T00:41:55.156Z,93.5
2017-10-25T00:42:57.587Z,93.6
2017-10-25T00:44:00.025Z,93.6
2017-10-25T00:45:02.816Z,93.6
2017-10-25T00:46:05.605Z,93.6
2017-10-25T00:47:08.403Z,93.5
2017-10-25T00:48:10.839Z,93.5
2017-10-25T00:49:13.273Z,93.5
2017-10-25T00:50:15.700Z,93.6
2017-10-25T00:51:18.498Z,93.6
2017-10-25T00:52:20.934Z,93.5
2017-10-25T00:53:23.361Z,93.5
2017-10-25T00:54:26.179Z,93.5
2017-10-25T00:55:28.605Z,93.5
2017-10-25T00:56:31.045Z,93.5
2017-10-25T00:57:33.488Z,93.5
2017-10-25T00:58:35.914Z,93.4
2017-10-25T00:59:38.346Z,93.5
2017-10-25T01:00:40.777Z,93.4
2017-10-25T01:01:43.231Z,93.3
2017-10-25T01:02:45.663Z,93.4
2017-10-25T01:03:48.085Z,93.5
2017-10-25T01:04:50.516Z,93.5
2017-10-25T01:05:52.947Z,93.5
2017-10-25T01:06:55.381Z,93.5
2017-10-25T01:07:57.818Z,93.5
2017-10-25T01:09:00.243Z,93.5
2017-10-25T01:10:03.071Z,93.6
2017-10-25T01:11:05.516Z,93.6
2017-10-25T01:12:07.950Z,93.6
2017-10-25T01:13:10.759Z,93.6
2017-10-25T01:14:13.188Z,93.5
2017-10-25T01:15:15.611Z,93.6
2017-10-25T01:16:18.055Z,93.6
2017-10-25T01:17:20.857Z,93.6
2017-10-25T01:18:23.278Z,93.5
2017-10-25T01:19:25.715Z,93.6
2017-10-25T01:20:28.146Z,93.6
2017-10-25T01:21:30.575Z,93.5
2017-10-25T01:22:33.004Z,93.6
2017-10-25T01:23:35.426Z,93.5
2017-10-25T01:24:37.854Z,93.5
2017-10-25T01:25:40.303Z,93.5
2017-10-25T01:26:42.736Z,93.5
2017-10-25T01:27:45.168Z,93.5
2017-10-25T01:28:47.611Z,93.5
2017-10-25T01:29:50.046Z,93.4
2017-10-25T01:30:52.484Z,93.4
2017-10-25T01:31:54.914Z,93.4
2017-10-25T01:32:57.349Z,93.5
2017-10-25T01:33:59.780Z,93.5
2017-10-25T01:35:02.196Z,93.5
2017-10-25T01:36:04.633Z,93.4
2017-10-25T01:37:07.078Z,93.5
2017-10-25T01:38:09.505Z,93.5
2017-10-25T01:39:11.941Z,93.6
2017-10-25T01:40:14.375Z,93.6
2017-10-25T01:41:16.806Z,93.5
2017-10-25T01:42:19.253Z,93.5
2017-10-25T01:43:21.682Z,93.5
2017-10-25T01:44:24.101Z,93.5
2017-10-25T01:45:26.544Z,93.6
2017-10-25T01:46:28.978Z,93.6
2017-10-25T01:47:31.413Z,93.6
2017-10-25T01:48:33.852Z,93.6
2017-10-25T01:49:36.275Z,93.6
2017-10-25T01:50:38.703Z,93.6
2017-10-25T01:51:41.504Z,93.6
2017-10-25T01:52:43.930Z,93.6
2017-10-25T01:53:46.731Z,93.6
2017-10-25T01:54:49.168Z,93.6
2017-10-25T01:55:51.600Z,93.7
2017-10-25T01:56:54.045Z,93.7
2017-10-25T01:57:56.482Z,93.6
2017-10-25T01:58:58.898Z,93.6
2017-10-25T02:00:01.331Z,93.6
2017-10-25T02:01:04.132Z,93.6
2017-10-25T02:02:06.566Z,93.7
2017-10-25T02:03:08.998Z,93.7
2017-10-25T02:04:11.432Z,93.7
2017-10-25T02:05:13.864Z,93.6
2017-10-25T02:06:16.291Z,93.7
2017-10-25T02:07:18.728Z,93.7
2017-10-25T02:08:21.165Z,93.8
2017-10-25T02:09:23.940Z,93.7
2017-10-25T02:10:26.388Z,93.7
2017-10-25T02:11:28.814Z,93.7
2017-10-25T02:12:31.607Z,93.7
2017-10-25T02:13:34.045Z,93.7
2017-10-25T02:14:36.479Z,93.7
2017-10-25T02:15:38.916Z,93.7
2017-10-25T02:16:41.343Z,93.7
2017-10-25T02:17:43.773Z,93.7
2017-10-25T02:18:46.202Z,93.6
2017-10-25T02:19:48.634Z,93.7
2017-10-25T02:20:51.061Z,93.7
2017-10-25T02:21:53.494Z,93.7
2017-10-25T02:22:55.925Z,93.7
2017-10-25T02:23:58.369Z,93.7
2017-10-25T02:25:00.813Z,93.7
2017-10-25T02:26:03.600Z,93.6
2017-10-25T02:27:06.033Z,93.5
2017-10-25T02:28:08.470Z,93.6
2017-10-25T02:29:10.891Z,93.6
2017-10-25T02:30:13.342Z,93.7
2017-10-25T02:31:15.779Z,93.7
2017-10-25T02:32:18.552Z,93.7
2017-10-25T02:33:21.340Z,93.7
2017-10-25T02:34:23.780Z,93.6
2017-10-25T02:35:26.585Z,93.6
2017-10-25T02:36:29.022Z,93.6
2017-10-25T02:37:31.806Z,93.5
2017-10-25T02:38:34.238Z,93.5
2017-10-25T02:39:36.682Z,93.5
2017-10-25T02:40:39.116Z,93.5
2017-10-25T02:41:41.557Z,93.5
2017-10-25T02:42:43.989Z,93.5
2017-10-25T02:43:46.432Z,93.6
2017-10-25T02:44:48.865Z,93.6
2017-10-25T02:45:51.307Z,93.6
2017-10-25T02:46:53.732Z,93.7
2017-10-25T02:47:56.172Z,93.7
2017-10-25T02:48:58.606Z,93.6
2017-10-25T02:50:01.398Z,93.6
2017-10-25T02:51:03.826Z,93.6
2017-10-25T02:52:06.267Z,93.5
2017-10-25T02:53:09.050Z,93.5
2017-10-25T02:54:11.847Z,93.5
2017-10-25T02:55:14.281Z,93.5
2017-10-25T02:56:16.716Z,93.5
2017-10-25T02:57:19.534Z,93.5
2017-10-25T02:58:21.981Z,93.5
2017-10-25T02:59:24.411Z,93.4
2017-10-25T03:00:26.851Z,93.4
2017-10-25T03:01:29.298Z,93.4
2017-10-25T03:02:31.712Z,93.4
2017-10-25T03:03:34.138Z,93.4
2017-10-25T03:04:36.568Z,93.5
2017-10-25T03:05:39.004Z,93.5
2017-10-25T03:06:41.431Z,93.5
2017-10-25T03:07:43.865Z,93.7
2017-10-25T03:08:46.305Z,93.6
2017-10-25T03:09:48.739Z,93.6
2017-10-25T03:10:51.536Z,93.6
2017-10-25T03:11:53.971Z,93.6
2017-10-25T03:12:56.405Z,93.6
2017-10-25T03:13:58.845Z,93.6
2017-10-25T03:15:01.282Z,93.6
2017-10-25T03:16:03.708Z,93.6
2017-10-25T03:17:06.152Z,93.6
2017-10-25T03:18:08.579Z,93.5
2017-10-25T03:19:11.010Z,93.5
2017-10-25T03:20:13.445Z,93.6
2017-10-25T03:21:15.874Z,93.6
2017-10-25T03:22:18.311Z,93.6
2017-10-25T03:23:20.749Z,93.6
2017-10-25T03:24:23.179Z,93.5
2017-10-25T03:25:25.603Z,93.5
2017-10-25T03:26:28.041Z,93.6
2017-10-25T03:27:30.478Z,93.5
2017-10-25T03:28:33.641Z,93.5
2017-10-25T03:29:36.450Z,93.5
2017-10-25T03:30:38.874Z,93.5
2017-10-25T03:31:41.296Z,93.4
2017-10-25T03:32:43.731Z,93.4
2017-10-25T03:33:46.159Z,93.4
2017-10-25T03:34:48.596Z,93.5
2017-10-25T03:35:51.038Z,93.5
2017-10-25T03:36:53.474Z,93.5
2017-10-25T03:37:56.288Z,93.5
2017-10-25T03:38:58.737Z,93.5
2017-10-25T03:40:01.524Z,93.5
2017-10-25T03:41:03.966Z,93.5
2017-10-25T03:42:06.394Z,93.5
2017-10-25T03:43:08.826Z,93.5
2017-10-25T03:44:11.257Z,93.5
2017-10-25T03:45:13.690Z,93.5
2017-10-25T03:46:16.122Z,93.4
2017-10-25T03:47:18.550Z,93.4
2017-10-25T03:48:20.989Z,93.3
2017-10-25T03:49:23.432Z,93.3
2017-10-25T03:50:25.855Z,93.3
2017-10-25T03:51:28.293Z,93.4
2017-10-25T03:52:30.733Z,93.4
2017-10-25T03:53:33.165Z,93.4
2017-10-25T03:54:35.604Z,93.4
2017-10-25T03:55:38.384Z,93.5
2017-10-25T03:56:40.812Z,93.4
2017-10-25T03:57:43.265Z,93.5
2017-10-25T03:58:45.689Z,93.5
2017-10-25T03:59:48.127Z,93.5
2017-10-25T04:00:50.560Z,93.5
2017-10-25T04:01:52.998Z,93.5
2017-10-25T04:02:55.422Z,93.5
2017-10-25T04:03:57.857Z,93.5
2017-10-25T04:05:00.302Z,93.5
2017-10-25T04:06:02.753Z,93.6
2017-10-25T04:07:05.235Z,93.6
2017-10-25T04:08:07.663Z,93.6
2017-10-25T04:09:10.089Z,93.5
2017-10-25T04:10:12.534Z,93.5
2017-10-25T04:11:14.961Z,93.5
2017-10-25T04:12:17.383Z,93.4
2017-10-25T04:13:19.823Z,93.4
2017-10-25T04:14:22.249Z,93.4
2017-10-25T04:15:24.684Z,93.3
2017-10-25T04:16:27.116Z,93.4
2017-10-25T04:17:29.556Z,93.5
2017-10-25T04:18:31.995Z,93.5
2017-10-25T04:19:34.439Z,93.4
2017-10-25T04:20:36.866Z,93.5
2017-10-25T04:21:39.312Z,93.4
2017-10-25T04:22:41.741Z,93.4
2017-10-25T04:23:44.180Z,93.4
2017-10-25T04:24:46.609Z,93.4
2017-10-25T04:25:49.037Z,93.3
2017-10-25T04:26:51.470Z,93.2
2017-10-25T04:27:53.908Z,93.3
2017-10-25T04:28:56.334Z,93.4
2017-10-25T04:29:58.772Z,93.4
2017-10-25T04:31:01.201Z,93.3
2017-10-25T04:32:03.653Z,93.4
2017-10-25T04:33:06.083Z,93.5
2017-10-25T04:34:08.517Z,93.4
2017-10-25T04:35:10.943Z,93.5
2017-10-25T04:36:13.390Z,93.4
2017-10-25T04:37:15.826Z,93.5
2017-10-25T04:38:18.247Z,93.6
2017-10-25T04:39:21.027Z,93.6
2017-10-25T04:40:23.456Z,93.5
2017-10-25T04:41:25.893Z,93.6
2017-10-25T04:42:28.328Z,93.6
2017-10-25T04:43:30.762Z,93.6
2017-10-25T04:44:33.200Z,93.6
2017-10-25T04:45:35.638Z,93.6
2017-10-25T04:46:38.075Z,93.5
2017-10-25T04:47:40.494Z,93.5
2017-10-25T04:48:42.945Z,93.5
2017-10-25T04:49:45.376Z,93.6
2017-10-25T04:50:47.812Z,93.6
2017-10-25T04:51:50.241Z,93.5
2017-10-25T04:52:52.666Z,93.5
2017-10-25T04:53:55.093Z,93.5
2017-10-25T04:54:57.537Z,93.4
2017-10-25T04:55:59.968Z,93.4
2017-10-25T04:57:02.408Z,93.4
2017-10-25T04:58:05.212Z,93.5
2017-10-25T04:59:07.649Z,93.5
2017-10-25T05:00:10.076Z,93.4
2017-10-25T05:01:12.876Z,93.5
2017-10-25T05:02:15.309Z,93.4
2017-10-25T05:03:17.757Z,93.5
2017-10-25T05:04:20.192Z,93.5
2017-10-25T05:05:22.629Z,93.5
2017-10-25T05:06:25.492Z,93.5
2017-10-25T05:07:29.036Z,93.5
2017-10-25T05:08:32.722Z,93.5
2017-10-25T05:09:35.957Z,93.4
2017-10-25T05:10:39.760Z,93.4
2017-10-25T05:11:42.203Z,93.5
2017-10-25T05:12:44.628Z,93.5
2017-10-25T05:13:47.398Z,93.5
2017-10-25T05:14:50.662Z,93.5
2017-10-25T05:15:53.099Z,93.5
2017-10-25T05:16:55.536Z,93.5
2017-10-25T05:17:57.982Z,93.5
2017-10-25T05:19:00.402Z,93.5
2017-10-25T05:20:02.840Z,93.6
2017-10-25T05:21:05.265Z,93.7
2017-10-25T05:22:07.699Z,93.6
2017-10-25T05:23:10.130Z,93.7
2017-10-25T05:24:12.563Z,93.7
2017-10-25T05:25:15.005Z,93.7
2017-10-25T05:26:17.446Z,93.7
2017-10-25T05:27:19.887Z,93.8
2017-10-25T05:28:22.321Z,93.8
2017-10-25T05:29:24.765Z,93.7
2017-10-25T05:30:27.567Z,93.7
2017-10-25T05:31:29.995Z,93.7
2017-10-25T05:32:32.434Z,93.7
2017-10-25T05:33:34.872Z,93.5
2017-10-25T05:34:37.676Z,93.6
2017-10-25T05:35:40.479Z,93.6
2017-10-25T05:36:42.915Z,93.6
2017-10-25T05:37:45.362Z,93.6
2017-10-25T05:38:47.804Z,93.5
2017-10-25T05:39:50.234Z,93.4
2017-10-25T05:40:52.659Z,93.5
2017-10-25T05:41:55.100Z,93.6
2017-10-25T05:42:57.528Z,93.6
2017-10-25T05:43:59.966Z,93.6
2017-10-25T05:45:02.409Z,93.6
2017-10-25T05:46:04.842Z,93.5
2017-10-25T05:47:07.634Z,93.6
2017-10-25T05:48:10.072Z,93.7
2017-10-25T05:49:12.497Z,93.6
2017-10-25T05:50:14.938Z,93.6
2017-10-25T05:51:17.372Z,93.6
2017-10-25T05:52:19.808Z,93.6
2017-10-25T05:53:22.241Z,93.6
2017-10-25T05:54:24.693Z,93.6
2017-10-25T05:55:27.136Z,93.6
2017-10-25T05:56:29.570Z,93.5
2017-10-25T05:57:32.006Z,93.6
2017-10-25T05:58:34.456Z,93.7
2017-10-25T05:59:37.273Z,93.7
2017-10-25T06:00:39.701Z,93.6
2017-10-25T06:01:42.158Z,93.7
2017-10-25T06:02:44.586Z,93.7
2017-10-25T06:03:47.013Z,93.8
2017-10-25T06:04:49.813Z,93.8
2017-10-25T06:05:52.247Z,93.8
2017-10-25T06:06:55.128Z,93.7
2017-10-25T06:07:58.258Z,93.7
2017-10-25T06:09:00.680Z,93.7
2017-10-25T06:10:03.845Z,93.7
2017-10-25T06:11:06.288Z,93.7
2017-10-25T06:12:08.736Z,93.7
2017-10-25T06:13:11.161Z,93.7
2017-10-25T06:14:13.596Z,93.6
2017-10-25T06:15:16.019Z,93.6
2017-10-25T06:16:18.461Z,93.6
2017-10-25T06:17:20.895Z,93.5
2017-10-25T06:18:23.309Z,93.6
2017-10-25T06:19:25.753Z,93.6
2017-10-25T06:20:28.177Z,93.6
2017-10-25T06:21:30.619Z,93.6
2017-10-25T06:22:33.062Z,93.7
2017-10-25T06:23:35.496Z,93.8
2017-10-25T06:24:37.926Z,93.7
2017-10-25T06:25:40.370Z,93.7
2017-10-25T06:26:42.796Z,93.8
2017-10-25T06:27:45.220Z,93.8
2017-10-25T06:28:47.648Z,93.7
2017-10-25T06:29:50.081Z,93.7
2017-10-25T06:30:52.514Z,93.7
2017-10-25T06:31:54.957Z,93.8
2017-10-25T06:32:57.393Z,93.7
2017-10-25T06:33:59.821Z,93.7
2017-10-25T06:35:02.272Z,93.8
2017-10-25T06:36:04.708Z,93.8
2017-10-25T06:37:07.148Z,93.8
2017-10-25T06:38:09.579Z,93.8
2017-10-25T06:39:12.008Z,93.7
2017-10-25T06:40:14.444Z,93.7
2017-10-25T06:41:16.892Z,93.7
2017-10-25T06:42:19.303Z,93.7
2017-10-25T06:43:21.737Z,93.7
2017-10-25T06:44:24.534Z,93.7
2017-10-25T06:45:26.958Z,93.8
2017-10-25T06:46:29.394Z,93.9
2017-10-25T06:47:31.836Z,93.9
2017-10-25T06:48:34.265Z,93.8
2017-10-25T06:49:36.708Z,93.8
2017-10-25T06:50:39.143Z,93.8
2017-10-25T06:51:41.584Z,93.8
2017-10-25T06:52:44.015Z,93.7
2017-10-25T06:53:46.456Z,93.7
2017-10-25T06:54:48.882Z,93.8
2017-10-25T06:55:51.314Z,93.8
2017-10-25T06:56:54.121Z,93.8
2017-10-25T06:57:56.553Z,93.8
2017-10-25T06:58:58.975Z,93.9
2017-10-25T07:00:01.416Z,93.9
2017-10-25T07:01:03.860Z,93.9
2017-10-25T07:02:06.291Z,93.8
2017-10-25T07:03:08.729Z,93.7
2017-10-25T07:04:11.159Z,93.8
2017-10-25T07:05:13.979Z,93.7
2017-10-25T07:06:16.769Z,93.7
2017-10-25T07:07:19.208Z,93.8
2017-10-25T07:08:21.626Z,93.8
2017-10-25T07:09:24.434Z,93.7
2017-10-25T07:10:27.244Z,93.8
2017-10-25T07:11:29.668Z,93.8
2017-10-25T07:12:32.105Z,93.9
2017-10-25T07:13:34.530Z,93.8
2017-10-25T07:14:36.964Z,93.9
2017-10-25T07:15:39.407Z,93.9
2017-10-25T07:16:41.842Z,93.9
2017-10-25T07:17:44.272Z,94
2017-10-25T07:18:46.710Z,93.9
2017-10-25T07:19:49.498Z,93.9
2017-10-25T07:20:51.932Z,94
2017-10-25T07:21:54.369Z,94
2017-10-25T07:22:56.792Z,94.1
2017-10-25T07:23:59.223Z,94.2
2017-10-25T07:25:01.666Z,94.2
2017-10-25T07:26:04.831Z,94.1
2017-10-25T07:27:07.252Z,94.1
2017-10-25T07:28:09.690Z,93.9
2017-10-25T07:29:12.127Z,93.9
2017-10-25T07:30:14.549Z,93.9
2017-10-25T07:31:16.988Z,93.9
2017-10-25T07:32:19.424Z,93.9
2017-10-25T07:33:21.851Z,93.8
2017-10-25T07:34:24.299Z,93.8
2017-10-25T07:35:26.735Z,93.9
2017-10-25T07:36:29.161Z,93.7
2017-10-25T07:37:31.602Z,93.8
2017-10-25T07:38:34.033Z,93.8
2017-10-25T07:39:36.842Z,93.9
2017-10-25T07:40:40.003Z,93.9
2017-10-25T07:41:42.423Z,94
2017-10-25T07:42:44.867Z,93.9
2017-10-25T07:43:47.292Z,93.9
2017-10-25T07:44:50.097Z,94
2017-10-25T07:45:52.526Z,93.9
2017-10-25T07:46:54.957Z,93.8
2017-10-25T07:47:57.397Z,93.8
2017-10-25T07:48:59.835Z,93.9
2017-10-25T07:50:02.269Z,93.9
2017-10-25T07:51:04.701Z,93.9
2017-10-25T07:52:07.129Z,93.9
2017-10-25T07:53:09.564Z,93.8
2017-10-25T07:54:11.997Z,93.9
2017-10-25T07:55:14.429Z,93.8
2017-10-25T07:56:16.867Z,93.9
2017-10-25T07:57:19.306Z,94
2017-10-25T07:58:21.735Z,94
2017-10-25T07:59:24.179Z,94
2017-10-25T08:00:26.613Z,93.9
2017-10-25T08:01:29.041Z,93.9
2017-10-25T08:02:31.469Z,93.9
2017-10-25T08:03:33.900Z,94
2017-10-25T08:04:36.334Z,94.1
2017-10-25T08:05:38.776Z,94.1
2017-10-25T08:06:41.209Z,94.1
2017-10-25T08:07:43.640Z,94
2017-10-25T08:08:46.070Z,94.1
2017-10-25T08:09:48.510Z,94
2017-10-25T08:10:50.949Z,94
2017-10-25T08:11:53.380Z,93.9
2017-10-25T08:12:55.803Z,94
2017-10-25T08:13:58.244Z,93.8
2017-10-25T08:15:00.689Z,93.8
2017-10-25T08:16:03.501Z,93.9
2017-10-25T08:17:05.937Z,93.8
2017-10-25T08:18:08.368Z,93.9
2017-10-25T08:19:10.794Z,94
2017-10-25T08:20:13.246Z,93.9
2017-10-25T08:21:15.670Z,93.9
2017-10-25T08:22:18.106Z,93.7
2017-10-25T08:23:20.533Z,93.8
2017-10-25T08:24:22.963Z,93.7
2017-10-25T08:25:25.753Z,93.6
2017-10-25T08:26:28.197Z,93.7
2017-10-25T08:27:30.627Z,93.7
2017-10-25T08:28:33.059Z,93.8
2017-10-25T08:29:35.499Z,93.8
2017-10-25T08:30:37.929Z,93.8
2017-10-25T08:31:40.350Z,93.9
2017-10-25T08:32:42.785Z,93.8
2017-10-25T08:33:45.211Z,93.8
2017-10-25T08:34:47.647Z,94
2017-10-25T08:35:50.085Z,94.2
2017-10-25T08:36:52.515Z,94.2
2017-10-25T08:37:54.946Z,94.3
2017-10-25T08:38:57.404Z,94.4
2017-10-25T08:39:59.831Z,94.6
2017-10-25T08:41:02.264Z,94.7
2017-10-25T08:42:04.700Z,94.7
2017-10-25T08:43:07.417Z,94.6
2017-10-25T08:44:09.856Z,94.7
2017-10-25T08:45:12.299Z,94.7
2017-10-25T08:46:14.718Z,94.7
2017-10-25T08:47:17.153Z,94.7
2017-10-25T08:48:19.584Z,94.6
2017-10-25T08:49:22.020Z,94.7
2017-10-25T08:50:24.848Z,94.8
2017-10-25T08:51:27.285Z,94.7
2017-10-25T08:52:29.717Z,94.5
2017-10-25T08:53:32.162Z,94.7
2017-10-25T08:54:34.601Z,94.6
2017-10-25T08:55:37.388Z,94.4
2017-10-25T08:56:39.824Z,94.4
2017-10-25T08:57:42.267Z,94.3
2017-10-25T08:58:44.710Z,94.4
2017-10-25T08:59:47.149Z,94.1
2017-10-25T09:00:49.943Z,94.2
2017-10-25T09:01:52.380Z,94.2
2017-10-25T09:02:54.821Z,94.2
2017-10-25T09:03:57.256Z,94.3
2017-10-25T09:04:59.695Z,94.3
2017-10-25T09:06:02.118Z,94.2
2017-10-25T09:07:04.603Z,94.2
2017-10-25T09:08:07.027Z,94.3
2017-10-25T09:09:09.464Z,94.3
2017-10-25T09:10:11.884Z,94.2
2017-10-25T09:11:14.334Z,94.1
2017-10-25T09:12:16.766Z,94.1
2017-10-25T09:13:19.947Z,94.1
2017-10-25T09:14:22.377Z,94
2017-10-25T09:15:24.803Z,94
2017-10-25T09:16:27.242Z,94.1
2017-10-25T09:17:29.683Z,93.9
2017-10-25T09:18:32.112Z,93.8
2017-10-25T09:19:34.547Z,93.8
2017-10-25T09:20:36.972Z,93.8
2017-10-25T09:21:39.420Z,93.8
2017-10-25T09:22:41.878Z,93.7
2017-10-25T09:23:44.317Z,93.8
2017-10-25T09:24:46.745Z,93.8
2017-10-25T09:25:49.182Z,93.7
2017-10-25T09:26:51.613Z,93.8
2017-10-25T09:27:54.397Z,93.9
2017-10-25T09:28:56.829Z,93.8
2017-10-25T09:29:59.273Z,93.8
2017-10-25T09:31:01.695Z,93.8
2017-10-25T09:32:04.140Z,93.8
2017-10-25T09:33:06.574Z,93.9
2017-10-25T09:34:09.371Z,93.9
2017-10-25T09:35:11.805Z,93.9
2017-10-25T09:36:14.619Z,93.9
2017-10-25T09:37:17.030Z,94
2017-10-25T09:38:19.465Z,94.1
2017-10-25T09:39:21.899Z,94.3
2017-10-25T09:40:24.338Z,94.3
2017-10-25T09:41:26.767Z,94.3
2017-10-25T09:42:29.202Z,94.3
2017-10-25T09:43:31.638Z,93.9
2017-10-25T09:44:34.073Z,94
2017-10-25T09:45:36.498Z,94.1
2017-10-25T09:46:38.963Z,94
2017-10-25T09:47:41.369Z,94.1
2017-10-25T09:48:43.816Z,94.2
2017-10-25T09:49:46.242Z,94.3
2017-10-25T09:50:48.675Z,94.4
2017-10-25T09:51:51.104Z,94.3
2017-10-25T09:52:53.551Z,94.3
2017-10-25T09:53:56.365Z,94.4
2017-10-25T09:54:58.785Z,94.4
2017-10-25T09:56:01.222Z,94.4
2017-10-25T09:57:04.028Z,94.3
2017-10-25T09:58:06.462Z,94.3
2017-10-25T09:59:08.904Z,94.2
2017-10-25T10:00:11.342Z,94.3
2017-10-25T10:01:13.777Z,94.4
2017-10-25T10:02:16.222Z,94.5
2017-10-25T10:03:18.649Z,94.7
2017-10-25T10:04:21.075Z,94.7
2017-10-25T10:05:23.508Z,94.9
2017-10-25T10:06:25.941Z,94.8
2017-10-25T10:07:28.377Z,94.7
2017-10-25T10:08:30.819Z,94.8
2017-10-25T10:09:33.239Z,95
2017-10-25T10:10:35.668Z,95.4
2017-10-25T10:11:38.113Z,95.8
2017-10-25T10:12:40.541Z,96.1
2017-10-25T10:13:42.975Z,96.4
2017-10-25T10:14:45.404Z,96.1
2017-10-25T10:15:47.841Z,96.7
2017-10-25T10:16:50.641Z,97.8
2017-10-25T10:17:53.082Z,98.2
2017-10-25T10:18:55.502Z,97.6
2017-10-25T10:19:57.951Z,98.2
2017-10-25T10:21:00.754Z,98.8
2017-10-25T10:22:03.186Z,99
2017-10-25T10:23:05.628Z,98.2
2017-10-25T10:24:08.065Z,97.6
2017-10-25T10:25:10.493Z,98.9
2017-10-25T10:26:13.291Z,98.7
2017-10-25T10:27:15.734Z,99
2017-10-25T10:28:18.160Z,99.3
2017-10-25T10:29:20.606Z,99.9
2017-10-25T10:30:23.051Z,99.9
2017-10-25T10:31:25.486Z,99.9
2017-10-25T10:32:28.285Z,99.9
2017-10-25T10:33:30.721Z,99.9
2017-10-25T10:34:33.156Z,99.9
2017-10-25T10:35:35.612Z,99.9
2017-10-25T10:36:38.058Z,99.9
2017-10-25T10:37:40.496Z,99.9
2017-10-25T10:38:42.931Z,99.9
2017-10-25T10:39:45.377Z,99.9
2017-10-25T10:40:48.166Z,99.9
2017-10-25T10:41:50.961Z,99.7
2017-10-25T10:42:53.390Z,97.1
2017-10-25T10:43:55.832Z,97
2017-10-25T10:44:58.290Z,96.5
2017-10-25T10:46:00.725Z,96.8
2017-10-25T10:47:03.173Z,97.4
2017-10-25T10:48:05.611Z,96.7
2017-10-25T10:49:08.041Z,96.1
2017-10-25T10:50:10.488Z,95.4
2017-10-25T10:51:12.929Z,94.7
2017-10-25T10:52:15.359Z,95.2
2017-10-25T10:53:17.800Z,95.1
2017-10-25T10:54:20.242Z,95.3
2017-10-25T10:55:22.713Z,95.3
2017-10-25T10:56:25.134Z,94.7
2017-10-25T10:57:27.579Z,94.2
2017-10-25T10:58:30.023Z,94
2017-10-25T10:59:32.463Z,94.1
2017-10-25T11:00:34.907Z,93.9
2017-10-25T11:01:37.339Z,93.2
2017-10-25T11:02:39.780Z,92.9
2017-10-25T11:03:42.213Z,92.6
2017-10-25T11:04:44.653Z,92.1
2017-10-25T11:05:47.104Z,92
2017-10-25T11:06:49.546Z,91.6
2017-10-25T11:07:51.983Z,92
2017-10-25T11:08:54.428Z,92.1
2017-10-25T11:09:56.870Z,92
2017-10-25T11:10:59.303Z,92
2017-10-25T11:12:01.738Z,91.9
2017-10-25T11:13:04.184Z,92.1
2017-10-25T11:14:06.625Z,92
2017-10-25T11:15:09.065Z,92.2
2017-10-25T11:16:12.203Z,91.9
2017-10-25T11:17:14.636Z,92
2017-10-25T11:18:17.072Z,92.1
2017-10-25T11:19:19.877Z,92.1
2017-10-25T11:20:22.307Z,92.2
2017-10-25T11:21:24.753Z,92.4
2017-10-25T11:22:27.197Z,92.4
2017-10-25T11:23:29.636Z,92.5
2017-10-25T11:24:32.077Z,92.6
2017-10-25T11:25:34.878Z,92.8
2017-10-25T11:26:37.654Z,93
2017-10-25T11:27:40.098Z,92.9
2017-10-25T11:28:42.879Z,92.9
2017-10-25T11:29:45.313Z,93
2017-10-25T11:30:47.754Z,93
2017-10-25T11:31:50.189Z,93
2017-10-25T11:32:52.616Z,93.1
2017-10-25T11:33:55.063Z,93.2
2017-10-25T11:34:57.506Z,93.3
2017-10-25T11:35:59.950Z,93.3
2017-10-25T11:37:02.388Z,93.3
2017-10-25T11:38:05.181Z,93.2
2017-10-25T11:39:07.621Z,93.2
2017-10-25T11:40:10.058Z,93.2
2017-10-25T11:41:12.493Z,93.1
2017-10-25T11:42:14.926Z,93.3
2017-10-25T11:43:17.349Z,93.2
2017-10-25T11:44:19.805Z,93.4
2017-10-25T11:45:22.231Z,93.6
2017-10-25T11:46:24.663Z,93.5
2017-10-25T11:47:27.098Z,93.6
2017-10-25T11:48:29.538Z,93.5
2017-10-25T11:49:31.975Z,93.5
2017-10-25T11:50:34.421Z,93.5
2017-10-25T11:51:37.207Z,93.7
2017-10-25T11:52:39.644Z,93.7
2017-10-25T11:53:42.083Z,93.7
2017-10-25T11:54:44.515Z,93.6
2017-10-25T11:55:46.946Z,93.6
2017-10-25T11:56:49.744Z,93.6
2017-10-25T11:57:52.168Z,93.7
2017-10-25T11:58:54.603Z,93.5
2017-10-25T11:59:57.048Z,93.7
2017-10-25T12:00:59.840Z,93.8
2017-10-25T12:02:02.284Z,93.9
2017-10-25T12:03:04.713Z,93.8
2017-10-25T12:04:07.138Z,93.9
2017-10-25T12:05:09.589Z,93.9
2017-10-25T12:06:12.743Z,93.7
2017-10-25T12:07:15.171Z,93.8
2017-10-25T12:08:17.620Z,93.9
2017-10-25T12:09:20.427Z,94
2017-10-25T12:10:22.851Z,94.2
2017-10-25T12:11:25.289Z,94
2017-10-25T12:12:27.722Z,94
2017-10-25T12:13:30.154Z,93.9
2017-10-25T12:14:32.597Z,93.9
2017-10-25T12:15:35.017Z,93.9
2017-10-25T12:16:37.460Z,93.9
2017-10-25T12:17:39.910Z,94
2017-10-25T12:18:42.338Z,93.9
2017-10-25T12:19:44.774Z,94
2017-10-25T12:20:47.215Z,94
2017-10-25T12:21:50.008Z,94
2017-10-25T12:22:52.453Z,94
2017-10-25T12:23:54.938Z,94
2017-10-25T12:24:57.525Z,93.9
2017-10-25T12:25:59.957Z,94
2017-10-25T12:27:02.390Z,94
2017-10-25T12:28:04.822Z,94
2017-10-25T12:29:07.265Z,94
2017-10-25T12:30:09.693Z,94
2017-10-25T12:31:12.136Z,94.1
2017-10-25T12:32:14.581Z,94.1
2017-10-25T12:33:17.022Z,94.2
2017-10-25T12:34:19.813Z,94.2
2017-10-25T12:35:22.599Z,94.1
2017-10-25T12:36:25.033Z,94
2017-10-25T12:37:27.469Z,93.8
2017-10-25T12:38:29.900Z,93.7
2017-10-25T12:39:32.336Z,93.9
2017-10-25T12:40:34.774Z,93.9
2017-10-25T12:41:38.020Z,93.8
2017-10-25T12:42:40.529Z,93.9
2017-10-25T12:43:43.168Z,94.1
2017-10-25T12:44:45.613Z,94
2017-10-25T12:45:48.052Z,94
2017-10-25T12:46:50.483Z,93.9
2017-10-25T12:47:52.925Z,93.9
2017-10-25T12:48:55.356Z,93.8
2017-10-25T12:49:57.784Z,93.7
2017-10-25T12:51:00.589Z,93.8
2017-10-25T12:52:03.018Z,93.9
2017-10-25T12:53:05.457Z,93.8
2017-10-25T12:54:07.894Z,93.8
2017-10-25T12:55:10.334Z,93.6
2017-10-25T12:56:12.758Z,93.7
2017-10-25T12:57:15.552Z,93.4
2017-10-25T12:58:18.007Z,93.5
2017-10-25T12:59:20.443Z,93.5
2017-10-25T13:00:22.889Z,93.5
2017-10-25T13:01:25.322Z,93.5
2017-10-25T13:02:27.757Z,93.5
2017-10-25T13:03:30.197Z,93.5
2017-10-25T13:04:32.627Z,93.4
2017-10-25T13:05:35.054Z,93.6
2017-10-25T13:06:37.491Z,93.7
2017-10-25T13:07:39.928Z,93.7
2017-10-25T13:08:42.350Z,93.7
2017-10-25T13:09:44.783Z,93.5
2017-10-25T13:10:47.218Z,93.4
2017-10-25T13:11:49.656Z,93.5
2017-10-25T13:12:52.096Z,93.5
2017-10-25T13:13:54.885Z,93.7
2017-10-25T13:14:57.332Z,93.9
2017-10-25T13:15:59.765Z,93.9
2017-10-25T13:17:02.294Z,94
2017-10-25T13:18:04.733Z,94.1
2017-10-25T13:19:07.158Z,94.1
2017-10-25T13:20:09.601Z,93.9
2017-10-25T13:21:12.030Z,93.8
2017-10-25T13:22:14.482Z,93.7
2017-10-25T13:23:16.913Z,93.6
2017-10-25T13:24:19.340Z,93.6
2017-10-25T13:25:21.778Z,93.7
2017-10-25T13:26:24.215Z,93.7
2017-10-25T13:27:26.656Z,93.7
2017-10-25T13:28:29.098Z,93.8
2017-10-25T13:29:31.521Z,93.8
2017-10-25T13:30:33.949Z,93.9
2017-10-25T13:31:36.597Z,93.8
2017-10-25T13:32:39.031Z,93.9
2017-10-25T13:33:41.448Z,93.9
2017-10-25T13:34:43.887Z,93.9
2017-10-25T13:35:46.321Z,94.1
2017-10-25T13:36:48.767Z,94
2017-10-25T13:37:51.201Z,94
2017-10-25T13:38:53.626Z,94.1
2017-10-25T13:39:56.422Z,94.1
2017-10-25T13:40:58.872Z,94
2017-10-25T13:42:01.313Z,93.9
2017-10-25T13:43:03.738Z,93.9
2017-10-25T13:44:06.177Z,93.7
2017-10-25T13:45:08.609Z,93.7
2017-10-25T13:46:11.047Z,93.7
2017-10-25T13:47:13.851Z,93.8
2017-10-25T13:48:16.277Z,93.8
2017-10-25T13:49:18.717Z,93.8
2017-10-25T13:50:21.148Z,93.8
2017-10-25T13:51:23.959Z,93.7
2017-10-25T13:52:26.392Z,93.7
2017-10-25T13:53:28.834Z,93.7
2017-10-25T13:54:31.265Z,93.7
2017-10-25T13:55:34.335Z,93.8